DSNT2: Lake Texoma, Denison Dam

Data processed at Fri Mar 09 2018 23:40


All information presented herein is the property of the government of the United States of America and may be revised or deleted at any time without prior notice.
Dissemination of this information without the expressed written consent of the Public Affairs Office, Tulsa District U.S. Army Corps of Engineers is strictly prohibited.
These data are gathered electronically and, as presented, have not undergone any form of quality control. These data are not guaranteed to be valid or correct.
Go to home page.
Go to station list.

Upstream stations:

Downstream station:
Previous Day
Next Day
Current Day
    
SHEF ID:       DSNT2     Lake Texoma, Denison Dam
STATION TYPE:  Reservoir
Normal Pool:  Bottom =   590.00, Top =   615.00

               PRECIP PRECIP(A) ELEVATION   STORAGE   TW-ELEV    INFLOW   RELEASE  AIR-TEMP  WIND-DIRWIND-SPEED REL-HUMID SOLAR-RAD   VOLTAGE  BAT-LOAD
                   in        in        ft     ac-ft        ft       cfs       cfs         F       deg       mph         %      W/m2      volt      volt
              Ccp-Rev   Ccp-Rev   Ccp-Rev   Ccp-Rev   Ccp-Rev  Regi-Rev  Regi-Rev   Ccp-Rev   Ccp-Rev   Ccp-Rev   Ccp-Rev   Ccp-Rev   Ccp-Rev   Ccp-Rev
(US/Central)
03/07 00:00      0.00      0.00    619.36   2675439    506.45      1551      4869     47.25    343.60     17.39     33.39      0.00     12.98     12.65
03/07 01:00      0.00      0.00    619.40   2678917    506.47      1551      4869     45.05    353.80     15.28     40.53      0.00     12.97     12.65
03/07 02:00      0.00      0.00    619.38   2677178    506.46       732      4869     43.30    354.60     15.45     44.26      0.00     12.95     12.60
03/07 03:00      0.00      0.00    619.38   2677178    506.48      1499      4869     41.86    337.80     15.43     42.19      0.00     12.93     12.60
03/07 04:00      0.00      0.00    619.37   2676309    506.47      1235      5069     40.77    329.00     13.59     49.02      0.00     12.92     12.60
03/07 05:00      0.00      0.00    619.38   2677178    506.49      1309      4869     40.32    332.20     16.94     48.77      0.00     12.91     12.60
03/07 06:00      0.00      0.00    619.38   2677178    506.45      1382      4869     39.00    334.40     15.31     51.34      0.00     12.90     12.54
03/07 07:00      0.00      0.00    619.38   2677178    506.50      1397      4869     37.90    334.30     12.91     54.63      8.00     12.92     12.54
03/07 08:00      0.00      0.00    619.38   2677178    506.48       249      4869     38.14    342.70     12.69     56.41    204.00     13.63     12.60
03/07 09:00      0.00      0.00    619.36   2675439    506.47       182      4869     38.14    357.10     11.13     53.79    132.00     13.91     13.30
03/07 10:00      0.00      0.00    619.36   2675439    506.46       109      4869     39.00    334.00      8.31     49.82    657.00     14.46     13.59
03/07 11:00      0.00      0.00    619.37   2676309    506.64        35     10986     41.97    298.00     13.86     52.32    820.00     14.18     13.53
03/07 12:00      0.00      0.00    619.36   2675439    506.74        21     10986     44.62    306.50     14.64     49.57    904.00     13.85     13.65
03/07 13:00      0.00      0.00    619.35   2674570    506.81         6     10986     46.90    304.60     12.79     41.94    939.00     13.75     14.00
03/07 14:00      0.00      0.00    619.33   2672831    506.84         1     11035     48.90    308.40      9.15     38.46    721.00     13.92     13.88
03/07 15:00      0.00      0.00    619.32   2671962    506.86         1     11035     51.21    315.20      6.28     40.23    776.00     13.98     13.53
03/07 16:00      0.00      0.00    619.31   2671093    506.84         1     11035     54.61    293.80      3.70     28.57    492.00     14.08     14.12
03/07 17:00      0.00      0.00    619.31   2671093    506.90         6     11035     55.15    305.60      2.06     24.84    345.00     14.42     14.00
03/07 18:00      0.00      0.00    619.29   2669354    506.87         7     11034     54.28    312.70      1.89     32.78    124.00     13.28     13.00
03/07 19:00      0.00      0.00    619.29   2669354    506.88         7     11034     51.98    285.60      2.07     29.12      1.00     13.07     12.95
03/07 20:00      0.00      0.00    619.29   2669354    506.88         7     11034     49.33    276.30      3.22     43.47      0.00     13.04     12.71
03/07 21:00      0.00      0.00    619.28   2668485    506.87        12     11034     48.47    273.00      2.54     46.76      0.00     13.02     12.65
03/07 22:00      0.00      0.00    619.26   2666746    506.87         7     11033     48.02    233.40      1.92     46.70      0.00     13.01     12.65
03/07 23:00      0.00      0.00    619.26   2666746    506.87        12     11033     47.35    173.60      0.57     51.64      0.00     12.99     12.65